Time;durP1;ratioP1;P1;durP2;ratioP2;P2;SDS_P1;SDS_P2;PMS_P1;PMS_P2;Temp;Humidity;BMP_temperature;BMP_pressure;BME280_temperature;BME280_humidity;BME280_pressure;Samples;Min_cycle;Max_cycle;Signal;HPM_P1;HPM_P2
2021/07/13 00:00:00;;;;;;;31.92;13.40;;;;;;;;;;5053952;28;20131;-77
2021/07/13 00:02:27;;;;;;;31.10;13.20;;;;;;;;;;5064345;28;20176;-77
2021/07/13 00:04:54;;;;;;;32.90;13.95;;;;;;;;;;5057102;28;20689;-77
2021/07/13 00:07:21;;;;;;;31.52;13.68;;;;;;;;;;5064223;28;20143;-77
2021/07/13 00:09:48;;;;;;;24.52;13.15;;;;;;;;;;5064505;28;20138;-77
2021/07/13 00:12:15;;;;;;;33.65;13.55;;;;;;;;;;5066904;28;20464;-77
2021/07/13 00:14:43;;;;;;;22.65;13.45;;;;;;;;;;5062130;28;20063;-77
2021/07/13 00:17:11;;;;;;;31.65;14.23;;;;;;;;;;5066686;28;20135;-77
2021/07/13 00:19:38;;;;;;;33.20;14.18;;;;;;;;;;5064942;28;20048;-77
2021/07/13 00:22:05;;;;;;;27.17;14.25;;;;;;;;;;5058696;28;20416;-77
2021/07/13 00:24:32;;;;;;;26.17;14.60;;;;;;;;;;5047095;28;20151;-77
2021/07/13 00:27:00;;;;;;;30.10;14.80;;;;;;;;;;5065396;28;20080;-77
2021/07/13 00:29:31;;;;;;;28.40;13.70;;;;;;;;;;5047180;28;20139;-77
2021/07/13 00:31:58;;;;;;;35.20;14.52;;;;;;;;;;5063557;28;20869;-77
2021/07/13 00:34:25;;;;;;;33.33;14.43;;;;;;;;;;5036432;28;20052;-76
2021/07/13 00:36:52;;;;;;;30.27;14.45;;;;;;;;;;5060800;28;20193;-77
2021/07/13 00:39:19;;;;;;;40.25;16.27;;;;;;;;;;5066817;28;20160;-77
2021/07/13 00:41:46;;;;;;;28.15;14.00;;;;;;;;;;5063962;28;20055;-77
2021/07/13 00:44:14;;;;;;;34.17;14.98;;;;;;;;;;5062837;28;20541;-77
2021/07/13 00:46:46;;;;;;;32.90;14.32;;;;;;;;;;5067460;28;20048;-77
2021/07/13 00:49:14;;;;;;;44.80;14.93;;;;;;;;;;5060668;28;20702;-77
2021/07/13 00:51:42;;;;;;;37.75;15.43;;;;;;;;;;5064651;28;20477;-77
2021/07/13 00:54:09;;;;;;;39.47;15.02;;;;;;;;;;5062911;28;20048;-77
2021/07/13 00:56:38;;;;;;;34.15;15.35;;;;;;;;;;5065249;28;20145;-77
2021/07/13 00:59:05;;;;;;;42.78;16.33;;;;;;;;;;5067564;28;20238;-77
2021/07/13 01:01:33;;;;;;;28.80;15.40;;;;;;;;;;5064214;28;20087;-77
2021/07/13 01:04:02;;;;;;;34.22;16.77;;;;;;;;;;5045087;28;20051;-77
2021/07/13 01:06:34;;;;;;;31.33;15.50;;;;;;;;;;5061744;28;20076;-77
2021/07/13 01:09:05;;;;;;;40.10;15.95;;;;;;;;;;5062337;28;20139;-77
2021/07/13 01:11:52;;;;;;;37.45;17.27;;;;;;;;;;5066427;28;20144;-77
2021/07/13 01:14:24;;;;;;;34.75;15.55;;;;;;;;;;5064852;28;20052;-77
2021/07/13 01:17:03;;;;;;;34.40;16.00;;;;;;;;;;5052607;28;20080;-77
2021/07/13 01:19:39;;;;;;;40.05;15.70;;;;;;;;;;5069551;28;20036;-77
2021/07/13 01:22:30;;;;;;;45.20;17.08;;;;;;;;;;5045134;28;20127;-77
2021/07/13 01:25:16;;;;;;;41.83;16.33;;;;;;;;;;5036858;28;20144;-77
2021/07/13 01:27:49;;;;;;;50.78;18.63;;;;;;;;;;5070146;28;20130;-77
2021/07/13 01:30:18;;;;;;;41.35;17.33;;;;;;;;;;5039694;28;20124;-77
2021/07/13 01:32:48;;;;;;;46.83;18.08;;;;;;;;;;5058516;28;20579;-77
2021/07/13 01:35:17;;;;;;;48.65;20.23;;;;;;;;;;5061102;28;20132;-77
2021/07/13 01:37:48;;;;;;;52.95;20.27;;;;;;;;;;5044206;28;20159;-77
2021/07/13 01:40:15;;;;;;;47.83;20.10;;;;;;;;;;5062657;28;20055;-77
2021/07/13 01:42:43;;;;;;;42.10;19.42;;;;;;;;;;5052938;28;20438;-78
2021/07/13 01:45:10;;;;;;;62.17;20.05;;;;;;;;;;5069191;28;20131;-77
2021/07/13 01:47:38;;;;;;;55.50;19.85;;;;;;;;;;5063631;28;20044;-78
2021/07/13 01:50:07;;;;;;;40.83;18.58;;;;;;;;;;5067555;28;20500;-77
2021/07/13 01:52:34;;;;;;;51.40;20.80;;;;;;;;;;5057483;28;20056;-78
2021/07/13 01:55:02;;;;;;;42.63;21.63;;;;;;;;;;5044454;28;20130;-77
2021/07/13 01:57:31;;;;;;;44.90;21.08;;;;;;;;;;5068500;28;20163;-78
2021/07/13 01:59:59;;;;;;;46.65;22.95;;;;;;;;;;5064441;28;20136;-77
2021/07/13 02:02:28;;;;;;;55.30;22.00;;;;;;;;;;5050203;28;20159;-78
2021/07/13 02:04:57;;;;;;;66.80;21.27;;;;;;;;;;5070774;28;20801;-77
2021/07/13 02:07:24;;;;;;;45.72;21.75;;;;;;;;;;5069335;28;20127;-77
2021/07/13 02:09:52;;;;;;;46.45;21.80;;;;;;;;;;5069125;28;20128;-77
2021/07/13 02:12:19;;;;;;;45.33;20.88;;;;;;;;;;5067895;28;20076;-77
2021/07/13 02:14:46;;;;;;;77.07;22.25;;;;;;;;;;5052355;28;20159;-78
2021/07/13 02:17:13;;;;;;;46.97;21.02;;;;;;;;;;5056341;28;20693;-77
2021/07/13 02:19:41;;;;;;;39.85;20.88;;;;;;;;;;5065740;28;20087;-77
2021/07/13 02:22:08;;;;;;;41.72;21.80;;;;;;;;;;5069496;28;20128;-77
2021/07/13 02:24:35;;;;;;;39.65;19.42;;;;;;;;;;5067975;28;20745;-77
2021/07/13 02:27:04;;;;;;;36.90;19.90;;;;;;;;;;5066226;28;20175;-77
2021/07/13 02:29:36;;;;;;;46.28;20.10;;;;;;;;;;5059968;28;20056;-77
2021/07/13 02:32:06;;;;;;;54.13;20.27;;;;;;;;;;5046175;28;20172;-78
2021/07/13 02:34:36;;;;;;;69.63;21.27;;;;;;;;;;5059405;28;20055;-78
2021/07/13 02:37:04;;;;;;;37.20;20.65;;;;;;;;;;5063762;28;20061;-77
2021/07/13 02:39:32;;;;;;;42.78;18.63;;;;;;;;;;5044804;28;20144;-77
2021/07/13 02:42:00;;;;;;;36.78;19.02;;;;;;;;;;5065294;28;20609;-77
2021/07/13 02:44:28;;;;;;;42.47;18.92;;;;;;;;;;5074725;28;20059;-77
2021/07/13 02:46:56;;;;;;;46.17;19.90;;;;;;;;;;5045266;28;20136;-78
2021/07/13 02:49:28;;;;;;;30.55;18.27;;;;;;;;;;5043061;28;20057;-77
2021/07/13 02:51:56;;;;;;;37.08;18.85;;;;;;;;;;5046458;28;20469;-77
2021/07/13 02:54:24;;;;;;;38.63;18.85;;;;;;;;;;5059023;28;20056;-77
2021/07/13 02:56:52;;;;;;;35.20;18.90;;;;;;;;;;5061888;28;20137;-77
2021/07/13 02:59:21;;;;;;;40.72;19.10;;;;;;;;;;5047313;28;20055;-77
2021/07/13 03:01:48;;;;;;;37.50;20.15;;;;;;;;;;5063147;28;20168;-77
2021/07/13 03:04:17;;;;;;;34.88;18.20;;;;;;;;;;5042044;28;20129;-77
2021/07/13 03:06:45;;;;;;;40.85;18.58;;;;;;;;;;5065859;28;20105;-77
2021/07/13 03:09:13;;;;;;;37.10;18.70;;;;;;;;;;5065076;28;20049;-77
2021/07/13 03:11:40;;;;;;;35.10;18.08;;;;;;;;;;5067666;28;20131;-77
2021/07/13 03:14:09;;;;;;;32.67;18.17;;;;;;;;;;5058150;28;20449;-77
2021/07/13 03:16:37;;;;;;;56.90;19.88;;;;;;;;;;5046551;28;20055;-77
2021/07/13 03:19:08;;;;;;;34.60;18.90;;;;;;;;;;5043702;28;20052;-77
2021/07/13 03:21:36;;;;;;;39.72;18.88;;;;;;;;;;5059362;28;20455;-77
2021/07/13 03:24:05;;;;;;;43.78;19.95;;;;;;;;;;5034147;28;20161;-77
2021/07/13 03:26:34;;;;;;;54.03;19.63;;;;;;;;;;5059998;28;20124;-77
2021/07/13 03:29:02;;;;;;;40.00;19.90;;;;;;;;;;5039063;28;20122;-77
2021/07/13 03:31:30;;;;;;;40.72;19.30;;;;;;;;;;5060692;28;20131;-77
2021/07/13 03:33:58;;;;;;;34.80;18.23;;;;;;;;;;5061745;28;20045;-77
2021/07/13 03:36:25;;;;;;;67.82;19.83;;;;;;;;;;5048448;28;20079;-77
2021/07/13 03:38:54;;;;;;;38.03;19.17;;;;;;;;;;5068006;28;20076;-77
2021/07/13 03:41:22;;;;;;;53.03;19.90;;;;;;;;;;5034786;28;20667;-77
2021/07/13 03:43:51;;;;;;;45.42;18.95;;;;;;;;;;5059314;28;20044;-78
2021/07/13 03:46:18;;;;;;;34.80;19.67;;;;;;;;;;5035050;28;20065;-77
2021/07/13 03:48:47;;;;;;;46.45;20.02;;;;;;;;;;5064682;28;20051;-77
2021/07/13 03:51:21;;;;;;;53.53;20.95;;;;;;;;;;5031032;28;20056;-77
2021/07/13 03:53:48;;;;;;;58.17;21.20;;;;;;;;;;5067859;28;20072;-77
2021/07/13 03:56:16;;;;;;;41.05;20.70;;;;;;;;;;5064364;28;20504;-77
2021/07/13 03:58:43;;;;;;;118.15;22.38;;;;;;;;;;5047545;28;20048;-77
2021/07/13 04:01:10;;;;;;;35.90;19.42;;;;;;;;;;5052988;28;20044;-77
2021/07/13 04:03:38;;;;;;;41.72;21.05;;;;;;;;;;5060821;28;20413;-77
2021/07/13 04:06:05;;;;;;;36.20;19.55;;;;;;;;;;5043522;28;20044;-77
2021/07/13 04:08:33;;;;;;;36.03;19.58;;;;;;;;;;5039874;28;20118;-77
2021/07/13 04:11:00;;;;;;;38.58;20.35;;;;;;;;;;5039191;28;20049;-77
2021/07/13 04:13:27;;;;;;;44.88;20.00;;;;;;;;;;5066454;28;20060;-77
2021/07/13 04:15:55;;;;;;;40.85;19.92;;;;;;;;;;5061880;28;20056;-77
2021/07/13 04:18:23;;;;;;;41.95;21.05;;;;;;;;;;5060848;28;20133;-77
2021/07/13 04:20:51;;;;;;;37.47;20.48;;;;;;;;;;5029865;28;20124;-77
2021/07/13 04:23:21;;;;;;;42.92;21.38;;;;;;;;;;5035616;28;20040;-77
2021/07/13 04:25:49;;;;;;;41.08;20.90;;;;;;;;;;5062055;28;20082;-77
2021/07/13 04:28:16;;;;;;;54.97;23.23;;;;;;;;;;5055019;28;20048;-77
2021/07/13 04:30:46;;;;;;;42.85;22.98;;;;;;;;;;5047642;28;20135;-78
2021/07/13 04:33:13;;;;;;;55.15;23.95;;;;;;;;;;5058585;28;20045;-77
2021/07/13 04:35:47;;;;;;;49.13;23.23;;;;;;;;;;5058817;28;20698;-77
2021/07/13 04:38:14;;;;;;;47.30;23.55;;;;;;;;;;5042115;28;20072;-77
2021/07/13 04:40:41;;;;;;;48.28;24.70;;;;;;;;;;5049030;28;20041;-77
2021/07/13 04:43:08;;;;;;;47.10;23.35;;;;;;;;;;5068316;28;20564;-77
2021/07/13 04:45:35;;;;;;;47.58;24.73;;;;;;;;;;5062765;28;20131;-77
2021/07/13 04:48:03;;;;;;;53.72;25.70;;;;;;;;;;5066974;28;20037;-78
2021/07/13 04:50:30;;;;;;;48.53;23.48;;;;;;;;;;5052648;28;20139;-78
2021/07/13 04:52:57;;;;;;;46.70;23.42;;;;;;;;;;5070110;28;20080;-79
2021/07/13 04:55:24;;;;;;;51.70;26.20;;;;;;;;;;5068385;28;20540;-76
2021/07/13 04:57:51;;;;;;;47.13;24.17;;;;;;;;;;5069588;28;20080;-78
2021/07/13 05:00:19;;;;;;;46.17;22.90;;;;;;;;;;5061289;28;20127;-78
2021/07/13 05:02:46;;;;;;;41.47;21.17;;;;;;;;;;5067774;28;20119;-78
2021/07/13 05:05:17;;;;;;;44.15;22.15;;;;;;;;;;5060846;28;20055;-79
2021/07/13 05:07:45;;;;;;;40.13;21.38;;;;;;;;;;5060991;28;20590;-83
2021/07/13 05:10:15;;;;;;;37.30;21.45;;;;;;;;;;5040528;28;20057;-82
2021/07/13 05:12:42;;;;;;;41.00;21.92;;;;;;;;;;5072306;28;20131;-81
2021/07/13 05:15:10;;;;;;;54.95;21.95;;;;;;;;;;5074245;28;20058;-82
2021/07/13 05:17:38;;;;;;;35.97;21.23;;;;;;;;;;5033475;28;20572;-84
2021/07/13 05:20:07;;;;;;;40.92;22.70;;;;;;;;;;5045303;28;20095;-83
2021/07/13 05:22:35;;;;;;;43.05;24.70;;;;;;;;;;5071173;28;20057;-82
2021/07/13 05:25:06;;;;;;;45.70;23.88;;;;;;;;;;5056835;28;20139;-81
2021/07/13 05:27:38;;;;;;;40.72;24.35;;;;;;;;;;5071516;28;20405;-80
2021/07/13 05:30:06;;;;;;;37.35;21.88;;;;;;;;;;5045459;28;20044;-79
2021/07/13 05:32:33;;;;;;;40.13;23.20;;;;;;;;;;5049016;28;20674;-78
2021/07/13 05:35:02;;;;;;;40.97;21.77;;;;;;;;;;5049108;28;20122;-79
2021/07/13 05:37:29;;;;;;;42.92;21.42;;;;;;;;;;5060051;28;20135;-79
2021/07/13 05:39:58;;;;;;;36.40;22.10;;;;;;;;;;5041681;28;20087;-79
2021/07/13 05:42:26;;;;;;;38.50;22.05;;;;;;;;;;5053342;28;20056;-79
2021/07/13 05:44:53;;;;;;;45.45;22.58;;;;;;;;;;5067549;28;20041;-79
2021/07/13 05:47:20;;;;;;;37.97;22.45;;;;;;;;;;5071734;28;20139;-79
2021/07/13 05:49:48;;;;;;;36.00;21.13;;;;;;;;;;5063523;28;20047;-79
2021/07/13 05:52:15;;;;;;;38.10;21.42;;;;;;;;;;5068888;28;20044;-79
2021/07/13 05:54:42;;;;;;;40.30;23.88;;;;;;;;;;5071908;28;20478;-79
2021/07/13 05:57:09;;;;;;;38.03;21.95;;;;;;;;;;5072071;28;20411;-79
2021/07/13 05:59:37;;;;;;;46.17;24.17;;;;;;;;;;5065906;28;20056;-79
2021/07/13 06:02:04;;;;;;;39.90;22.35;;;;;;;;;;5038044;28;20600;-78
2021/07/13 06:04:31;;;;;;;35.15;22.48;;;;;;;;;;5064333;28;20056;-79
2021/07/13 06:06:58;;;;;;;33.33;21.20;;;;;;;;;;5070331;28;20480;-79
2021/07/13 06:09:29;;;;;;;38.15;20.55;;;;;;;;;;5048384;28;20064;-79
2021/07/13 06:11:59;;;;;;;34.13;22.38;;;;;;;;;;5045878;28;20135;-79
2021/07/13 06:14:27;;;;;;;43.60;23.35;;;;;;;;;;5050781;28;20053;-79
2021/07/13 06:17:03;;;;;;;40.95;22.60;;;;;;;;;;5051743;28;20667;-79
2021/07/13 06:19:31;;;;;;;39.55;23.65;;;;;;;;;;5065524;28;20144;-80
2021/07/13 06:21:58;;;;;;;37.28;21.40;;;;;;;;;;5064371;28;20169;-79
2021/07/13 06:24:25;;;;;;;42.67;24.15;;;;;;;;;;5050388;28;20235;-79
2021/07/13 06:26:52;;;;;;;33.42;21.98;;;;;;;;;;5049511;28;20053;-80
2021/07/13 06:29:19;;;;;;;30.45;19.55;;;;;;;;;;5043023;28;20132;-80
2021/07/13 06:31:46;;;;;;;29.90;20.25;;;;;;;;;;5024467;28;20102;-79
2021/07/13 06:34:14;;;;;;;30.63;20.85;;;;;;;;;;5060102;28;20049;-79
2021/07/13 06:36:42;;;;;;;29.80;20.27;;;;;;;;;;5049457;28;20134;-79
2021/07/13 06:39:10;;;;;;;31.25;19.98;;;;;;;;;;5044718;28;20487;-79
2021/07/13 06:41:37;;;;;;;28.40;19.10;;;;;;;;;;5060279;28;20573;-80
2021/07/13 06:44:04;;;;;;;27.63;18.60;;;;;;;;;;5071564;28;20075;-80
2021/07/13 06:46:33;;;;;;;27.38;17.95;;;;;;;;;;5070635;28;20387;-80
2021/07/13 06:49:02;;;;;;;22.33;15.60;;;;;;;;;;5070336;28;20446;-81
2021/07/13 06:51:30;;;;;;;23.42;15.80;;;;;;;;;;5055097;28;20102;-79
2021/07/13 06:53:58;;;;;;;21.60;15.18;;;;;;;;;;5062385;28;20102;-79
2021/07/13 06:56:25;;;;;;;22.25;15.38;;;;;;;;;;5052294;28;20092;-78
2021/07/13 06:58:53;;;;;;;20.73;14.13;;;;;;;;;;5049466;28;20071;-79
2021/07/13 07:01:22;;;;;;;20.00;15.13;;;;;;;;;;5041088;28;20123;-79
2021/07/13 07:03:49;;;;;;;24.98;12.75;;;;;;;;;;5069991;28;20130;-79
2021/07/13 07:06:16;;;;;;;16.90;12.93;;;;;;;;;;5069710;28;20581;-79
2021/07/13 07:08:43;;;;;;;17.63;13.73;;;;;;;;;;5050464;28;20122;-79
2021/07/13 07:11:11;;;;;;;16.88;13.77;;;;;;;;;;5047434;28;20076;-79
2021/07/13 07:13:38;;;;;;;16.88;13.00;;;;;;;;;;5069909;28;20649;-79
2021/07/13 07:16:06;;;;;;;18.27;12.80;;;;;;;;;;5069460;28;20063;-79
2021/07/13 07:18:34;;;;;;;20.75;14.57;;;;;;;;;;5052153;28;20056;-79
2021/07/13 07:21:01;;;;;;;16.35;13.15;;;;;;;;;;5057623;28;20080;-80
2021/07/13 07:23:28;;;;;;;16.75;13.73;;;;;;;;;;5068817;28;20040;-80
2021/07/13 07:25:57;;;;;;;19.80;13.20;;;;;;;;;;5069560;28;20420;-80
2021/07/13 07:28:26;;;;;;;16.42;12.80;;;;;;;;;;5051957;28;20059;-80
2021/07/13 07:30:54;;;;;;;19.27;12.68;;;;;;;;;;5039470;28;20045;-81
2021/07/13 07:33:22;;;;;;;17.55;12.25;;;;;;;;;;5041524;28;20064;-80
2021/07/13 07:35:50;;;;;;;16.42;13.00;;;;;;;;;;5068695;28;20497;-80
2021/07/13 07:38:18;;;;;;;17.15;12.63;;;;;;;;;;5052565;28;20087;-80
2021/07/13 07:44:07;;;;;;;15.00;11.80;;;;;;;;;;5057029;28;20044;-79
2021/07/13 07:46:34;;;;;;;21.80;12.10;;;;;;;;;;5064720;28;20054;-79
2021/07/13 07:49:02;;;;;;;14.40;11.32;;;;;;;;;;5047937;28;20796;-80
2021/07/13 07:51:30;;;;;;;15.35;11.77;;;;;;;;;;5058100;28;20088;-81
2021/07/13 07:53:57;;;;;;;17.90;11.15;;;;;;;;;;5066769;28;20058;-81
2021/07/13 07:56:24;;;;;;;13.02;11.10;;;;;;;;;;5048681;28;20583;-79
2021/07/13 07:58:54;;;;;;;15.45;11.23;;;;;;;;;;5049475;28;20130;-81
2021/07/13 08:01:22;;;;;;;11.85;10.57;;;;;;;;;;5028932;28;20048;-84
2021/07/13 08:03:57;;;;;;;13.55;11.02;;;;;;;;;;5061449;28;20053;-82
2021/07/13 08:06:24;;;;;;;11.20;9.90;;;;;;;;;;5067915;28;20814;-80
2021/07/13 08:08:51;;;;;;;13.32;10.52;;;;;;;;;;5067957;28;20132;-82
2021/07/13 08:11:19;;;;;;;9.85;8.85;;;;;;;;;;5044592;28;20456;-80
2021/07/13 08:13:46;;;;;;;11.68;9.90;;;;;;;;;;5037963;28;20637;-80
2021/07/13 08:16:14;;;;;;;22.20;9.93;;;;;;;;;;5048121;28;20148;-80
2021/07/13 08:18:41;;;;;;;11.38;10.00;;;;;;;;;;5030523;28;20075;-80
2021/07/13 08:21:19;;;;;;;12.02;8.98;;;;;;;;;;5056770;28;20052;-80
2021/07/13 08:23:47;;;;;;;15.48;9.85;;;;;;;;;;5059127;28;20190;-78
2021/07/13 08:26:14;;;;;;;10.93;9.75;;;;;;;;;;5030644;28;20132;-78
2021/07/13 08:28:41;;;;;;;11.13;8.48;;;;;;;;;;5051951;28;20061;-78
2021/07/13 08:34:08;;;;;;;8.88;7.43;;;;;;;;;;5028679;28;20805;-78
2021/07/13 08:36:39;;;;;;;7.85;7.05;;;;;;;;;;5031278;28;20072;-78
2021/07/13 08:39:06;;;;;;;8.40;7.50;;;;;;;;;;5028721;28;20107;-78
2021/07/13 08:41:34;;;;;;;8.70;6.85;;;;;;;;;;5004962;28;20111;-77
2021/07/13 08:44:02;;;;;;;8.27;7.20;;;;;;;;;;5013675;28;20062;-78
2021/07/13 08:46:29;;;;;;;10.35;7.82;;;;;;;;;;5013228;28;20080;-77
2021/07/13 08:48:56;;;;;;;8.32;7.40;;;;;;;;;;5030612;28;20049;-78
2021/07/13 08:54:08;;;;;;;7.85;7.05;;;;;;;;;;5013142;28;20152;-78
2021/07/13 08:56:36;;;;;;;8.90;7.90;;;;;;;;;;5025324;28;20486;-78
2021/07/13 08:59:07;;;;;;;11.75;7.60;;;;;;;;;;5033388;28;20052;-78
2021/07/13 09:01:34;;;;;;;9.52;8.63;;;;;;;;;;5010999;28;20112;-79
2021/07/13 09:04:06;;;;;;;14.48;8.95;;;;;;;;;;5026462;28;20049;-78
2021/07/13 09:06:52;;;;;;;9.52;8.63;;;;;;;;;;5020630;28;20054;-79
2021/07/13 09:09:23;;;;;;;9.88;7.88;;;;;;;;;;5007217;28;20065;-78
2021/07/13 09:12:05;;;;;;;13.57;8.18;;;;;;;;;;5006624;28;20050;-78
2021/07/13 09:14:51;;;;;;;9.18;8.20;;;;;;;;;;5010627;28;20104;-78
2021/07/13 09:17:19;;;;;;;;;;;;;;;;;;5011196;28;20144;-79
2021/07/13 09:19:59;;;;;;;12.02;8.68;;;;;;;;;;5004623;28;19968;-79
2021/07/13 09:22:32;;;;;;;11.95;7.10;;;;;;;;;;5024201;28;20143;-79
2021/07/13 09:25:00;;;;;;;10.70;7.10;;;;;;;;;;5029900;28;20136;-79
2021/07/13 09:27:28;;;;;;;13.18;7.88;;;;;;;;;;5020498;28;20149;-79
2021/07/13 09:29:55;;;;;;;9.30;7.38;;;;;;;;;;5024147;28;20041;-79
2021/07/13 09:32:31;;;;;;;9.43;7.75;;;;;;;;;;5019581;28;20430;-79
2021/07/13 09:35:03;;;;;;;8.98;7.82;;;;;;;;;;5029358;28;20052;-78
2021/07/13 09:37:33;;;;;;;7.95;7.03;;;;;;;;;;5029599;28;20695;-79
2021/07/13 09:42:55;;;;;;;7.45;6.65;;;;;;;;;;5065087;28;20044;-77
2021/07/13 09:45:31;;;;;;;6.28;5.65;;;;;;;;;;5066437;28;20055;-78
2021/07/13 09:48:09;;;;;;;8.85;6.15;;;;;;;;;;5069099;28;20840;-78
2021/07/13 09:50:44;;;;;;;7.20;5.78;;;;;;;;;;5064911;28;20132;-79
2021/07/13 09:53:15;;;;;;;6.95;5.78;;;;;;;;;;5070279;28;20090;-79
2021/07/13 09:55:43;;;;;;;7.47;6.15;;;;;;;;;;5070148;28;20063;-78
2021/07/13 09:58:11;;;;;;;7.05;6.00;;;;;;;;;;5070031;28;20050;-79
2021/07/13 10:00:39;;;;;;;6.13;4.95;;;;;;;;;;5065867;28;20049;-79
2021/07/13 10:03:12;;;;;;;7.90;5.30;;;;;;;;;;5050692;28;20072;-79
2021/07/13 10:05:53;;;;;;;6.65;4.95;;;;;;;;;;5076791;28;20152;-79
2021/07/13 10:08:20;;;;;;;5.20;4.70;;;;;;;;;;5065742;22;20076;-79
2021/07/13 10:10:49;;;;;;;8.75;4.53;;;;;;;;;;5050296;28;20485;-80
2021/07/13 10:13:18;;;;;;;6.38;4.80;;;;;;;;;;5053244;28;20149;-80
2021/07/13 10:15:54;;;;;;;5.85;5.25;;;;;;;;;;5053057;28;20057;-81
2021/07/13 10:18:22;;;;;;;7.93;6.18;;;;;;;;;;5053996;28;20080;-80
2021/07/13 10:20:53;;;;;;;6.18;5.13;;;;;;;;;;5064595;28;20048;-80
2021/07/13 10:23:20;;;;;;;6.90;4.63;;;;;;;;;;5050681;28;20681;-78
2021/07/13 10:25:48;;;;;;;6.75;5.10;;;;;;;;;;5053049;28;20056;-78
2021/07/13 10:28:19;;;;;;;9.52;5.07;;;;;;;;;;5069971;28;20139;-78
2021/07/13 10:30:49;;;;;;;11.15;5.22;;;;;;;;;;5081608;22;20075;-78
2021/07/13 10:33:29;;;;;;;6.32;4.35;;;;;;;;;;5084547;28;20052;-79
2021/07/13 10:35:57;;;;;;;8.45;4.60;;;;;;;;;;5080630;28;20114;-78
2021/07/13 10:38:24;;;;;;;5.30;4.28;;;;;;;;;;5076224;28;20868;-80
2021/07/13 10:40:54;;;;;;;5.13;4.00;;;;;;;;;;5055197;28;20502;-80
2021/07/13 10:43:23;;;;;;;8.30;4.50;;;;;;;;;;5070894;28;20154;-78
2021/07/13 10:46:06;;;;;;;6.38;4.53;;;;;;;;;;5086919;28;20075;-77
2021/07/13 10:48:33;;;;;;;3.92;3.53;;;;;;;;;;5086909;28;20044;-77
2021/07/13 10:51:06;;;;;;;8.52;4.47;;;;;;;;;;5065753;22;20143;-77
2021/07/13 10:53:40;;;;;;;4.53;3.90;;;;;;;;;;5058957;28;20422;-78
2021/07/13 10:56:11;;;;;;;6.93;4.65;;;;;;;;;;5065267;28;20160;-78
2021/07/13 10:58:44;;;;;;;5.45;4.13;;;;;;;;;;5067568;28;20378;-78
2021/07/13 11:01:16;;;;;;;6.88;4.63;;;;;;;;;;5059780;28;20824;-78
2021/07/13 11:03:44;;;;;;;9.15;4.28;;;;;;;;;;5066208;28;20049;-78
2021/07/13 11:06:16;;;;;;;5.10;3.50;;;;;;;;;;5066737;28;20830;-78
2021/07/13 11:08:44;;;;;;;5.35;3.97;;;;;;;;;;5063115;28;20048;-78
2021/07/13 11:11:11;;;;;;;5.68;4.13;;;;;;;;;;5060847;28;20048;-77
2021/07/13 11:13:39;;;;;;;4.30;3.90;;;;;;;;;;5067121;28;20076;-78
2021/07/13 11:16:06;;;;;;;8.18;4.18;;;;;;;;;;5049493;28;20067;-78
2021/07/13 11:18:34;;;;;;;8.27;3.97;;;;;;;;;;5066640;28;20131;-78
2021/07/13 11:21:14;;;;;;;5.53;4.18;;;;;;;;;;5062643;28;20099;-77
2021/07/13 11:23:42;;;;;;;4.13;3.72;;;;;;;;;;5046349;28;20102;-78
2021/07/13 11:26:10;;;;;;;5.50;4.47;;;;;;;;;;5038880;28;20131;-78
2021/07/13 11:28:39;;;;;;;5.97;3.80;;;;;;;;;;5061008;28;20135;-78
2021/07/13 11:31:06;;;;;;;3.80;3.40;;;;;;;;;;5057411;28;20049;-78
2021/07/13 11:33:35;;;;;;;9.90;4.10;;;;;;;;;;5066895;28;20764;-78
2021/07/13 11:36:03;;;;;;;8.48;4.28;;;;;;;;;;5045346;28;20048;-78
2021/07/13 11:38:34;;;;;;;7.40;4.32;;;;;;;;;;5064508;28;20044;-78
2021/07/13 11:41:09;;;;;;;5.60;3.97;;;;;;;;;;5057573;28;20135;-78
2021/07/13 11:43:37;;;;;;;7.63;4.38;;;;;;;;;;5062951;28;20052;-77
2021/07/13 11:46:12;;;;;;;4.97;4.10;;;;;;;;;;5066219;28;20051;-78
2021/07/13 11:48:41;;;;;;;4.47;4.07;;;;;;;;;;5047311;28;20599;-78
2021/07/13 11:51:08;;;;;;;4.22;3.83;;;;;;;;;;5077803;22;20064;-78
2021/07/13 11:53:36;;;;;;;6.65;4.32;;;;;;;;;;5067967;28;20127;-78
2021/07/13 11:56:03;;;;;;;6.50;4.28;;;;;;;;;;5045983;28;20049;-78
2021/07/13 11:58:31;;;;;;;5.53;4.28;;;;;;;;;;5066895;28;20132;-78
2021/07/13 12:01:17;;;;;;;6.57;4.18;;;;;;;;;;5059907;28;20088;-78
2021/07/13 12:03:45;;;;;;;11.02;4.18;;;;;;;;;;5064121;28;20051;-77
2021/07/13 12:06:13;;;;;;;6.00;3.80;;;;;;;;;;5065817;28;20111;-78
2021/07/13 12:08:40;;;;;;;6.15;4.00;;;;;;;;;;5048411;28;20123;-78
2021/07/13 12:14:10;;;;;;;3.83;3.53;;;;;;;;;;5065209;28;20053;-79
2021/07/13 12:16:37;;;;;;;11.20;4.53;;;;;;;;;;5065283;28;20044;-78
2021/07/13 12:19:06;;;;;;;5.50;3.88;;;;;;;;;;5065216;28;20087;-78
2021/07/13 12:21:34;;;;;;;5.75;4.18;;;;;;;;;;5062532;28;20131;-78
2021/07/13 12:24:09;;;;;;;5.75;3.72;;;;;;;;;;5068212;28;20135;-78
2021/07/13 12:26:37;;;;;;;10.38;4.25;;;;;;;;;;5078750;28;20131;-77
2021/07/13 12:29:06;;;;;;;5.22;3.67;;;;;;;;;;5047507;28;20052;-78
2021/07/13 12:31:38;;;;;;;4.70;3.63;;;;;;;;;;5053669;28;20087;-78
2021/07/13 12:34:15;;;;;;;13.32;4.05;;;;;;;;;;5063259;28;20543;-78
2021/07/13 12:36:42;;;;;;;6.50;3.47;;;;;;;;;;5087444;28;20051;-78
2021/07/13 12:39:14;;;;;;;5.82;3.42;;;;;;;;;;5083726;28;20166;-78
2021/07/13 12:41:41;;;;;;;10.20;3.53;;;;;;;;;;5073790;28;20045;-78
2021/07/13 12:44:38;;;;;;;9.75;3.80;;;;;;;;;;5066911;28;20048;-78
2021/07/13 12:47:14;;;;;;;3.25;2.80;;;;;;;;;;5045304;28;20053;-78
2021/07/13 12:49:58;;;;;;;5.53;3.42;;;;;;;;;;5060315;28;20128;-78
2021/07/13 12:52:34;;;;;;;5.22;3.55;;;;;;;;;;5088716;28;20087;-81
2021/07/13 12:55:04;;;;;;;9.27;3.15;;;;;;;;;;5087809;28;20044;-78
2021/07/13 12:57:32;;;;;;;6.53;3.88;;;;;;;;;;5087132;28;20143;-77
2021/07/13 13:00:06;;;;;;;3.90;3.50;;;;;;;;;;5064320;28;20169;-77
2021/07/13 13:02:34;;;;;;;6.80;2.83;;;;;;;;;;5074580;28;20409;-77
2021/07/13 13:05:01;;;;;;;5.60;3.00;;;;;;;;;;5067475;28;20080;-77
2021/07/13 13:07:29;;;;;;;5.65;3.00;;;;;;;;;;5085361;28;20218;-77
2021/07/13 13:09:56;;;;;;;6.85;2.55;;;;;;;;;;5063502;28;20064;-77
2021/07/13 13:12:23;;;;;;;3.65;2.75;;;;;;;;;;5085999;28;20056;-77
2021/07/13 13:14:50;;;;;;;5.03;2.70;;;;;;;;;;5089766;28;20533;-77
2021/07/13 13:17:18;;;;;;;4.53;3.08;;;;;;;;;;5089385;28;20091;-77
2021/07/13 13:19:46;;;;;;;11.90;2.85;;;;;;;;;;5073090;28;20131;-77
2021/07/13 13:22:14;;;;;;;7.43;2.95;;;;;;;;;;5066947;28;20510;-76
2021/07/13 13:24:42;;;;;;;4.55;2.65;;;;;;;;;;5069329;28;20088;-77
2021/07/13 13:27:09;;;;;;;5.53;2.97;;;;;;;;;;5069245;28;20163;-77
2021/07/13 13:29:37;;;;;;;3.22;2.60;;;;;;;;;;5051950;28;20058;-77
2021/07/13 13:32:04;;;;;;;3.88;2.90;;;;;;;;;;5068225;28;20139;-77
2021/07/13 13:34:34;;;;;;;9.40;2.95;;;;;;;;;;5076320;28;20057;-78
2021/07/13 13:37:09;;;;;;;4.95;3.10;;;;;;;;;;5059268;28;20092;-77
2021/07/13 13:39:36;;;;;;;;;;;;;;;;;;5068242;28;20095;-78
2021/07/13 13:42:03;;;;;;;9.20;3.55;;;;;;;;;;5047481;28;19935;-78
2021/07/13 13:44:31;;;;;;;5.82;3.08;;;;;;;;;;5068369;28;20048;-78
2021/07/13 13:47:00;;;;;;;4.53;3.22;;;;;;;;;;5070550;28;20442;-78
2021/07/13 13:49:27;;;;;;;10.02;3.53;;;;;;;;;;5065420;28;20049;-78
2021/07/13 13:51:54;;;;;;;5.07;3.10;;;;;;;;;;5046819;28;20186;-79
2021/07/13 13:54:21;;;;;;;6.97;3.40;;;;;;;;;;5069221;28;20608;-78
2021/07/13 13:56:49;;;;;;;3.58;3.05;;;;;;;;;;5068507;28;20132;-78
2021/07/13 13:59:17;;;;;;;5.05;3.70;;;;;;;;;;5068061;28;20110;-78
2021/07/13 14:01:44;;;;;;;4.22;3.10;;;;;;;;;;5067382;28;20128;-78
2021/07/13 14:04:12;;;;;;;5.28;3.05;;;;;;;;;;5064180;28;20139;-78
2021/07/13 14:06:39;;;;;;;5.07;3.72;;;;;;;;;;5083084;22;20277;-78
2021/07/13 14:09:06;;;;;;;8.80;3.47;;;;;;;;;;5047377;28;20583;-78
2021/07/13 14:14:17;;;;;;;3.63;3.22;;;;;;;;;;5298081;22;20050;-78
2021/07/13 14:16:45;;;;;;;3.67;3.35;;;;;;;;;;4987787;28;20149;-78
2021/07/13 14:19:12;;;;;;;3.45;3.13;;;;;;;;;;4984771;28;20046;-77
2021/07/13 14:21:41;;;;;;;3.97;3.28;;;;;;;;;;4980987;28;20060;-77
2021/07/13 14:24:09;;;;;;;4.55;3.53;;;;;;;;;;4969499;28;20049;-78
2021/07/13 14:26:36;;;;;;;6.03;3.65;;;;;;;;;;4987960;28;20097;-77
2021/07/13 14:29:03;;;;;;;5.80;3.58;;;;;;;;;;4985581;28;20051;-78
2021/07/13 14:31:30;;;;;;;12.05;4.13;;;;;;;;;;4977707;28;20129;-78
2021/07/13 14:33:58;;;;;;;5.07;3.33;;;;;;;;;;4970856;28;20161;-77
2021/07/13 14:36:25;;;;;;;4.90;3.90;;;;;;;;;;4970174;28;20652;-78
2021/07/13 14:38:52;;;;;;;4.10;3.70;;;;;;;;;;4988309;28;20054;-78
2021/07/13 14:41:21;;;;;;;6.63;4.05;;;;;;;;;;4975190;28;20090;-77
2021/07/13 14:43:49;;;;;;;4.03;3.63;;;;;;;;;;4988036;28;20717;-77
2021/07/13 14:46:16;;;;;;;4.97;4.35;;;;;;;;;;4987560;28;20137;-77
2021/07/13 14:48:43;;;;;;;6.90;3.85;;;;;;;;;;4988214;28;20192;-77
2021/07/13 14:51:10;;;;;;;8.90;4.10;;;;;;;;;;4976213;28;20054;-74
2021/07/13 14:53:37;;;;;;;15.63;3.80;;;;;;;;;;4987534;28;20049;-77
2021/07/13 14:56:05;;;;;;;5.80;4.18;;;;;;;;;;4987679;28;20085;-77